createdAt,value
2018-09-30T00:00:08.938Z,18.00
2018-09-30T00:01:12.462Z,20.50
2018-09-30T00:02:16.142Z,18.50
2018-09-30T00:03:18.823Z,18.00
2018-09-30T00:04:21.865Z,19.50
2018-09-30T00:05:24.563Z,20.25
2018-09-30T00:06:30.225Z,17.50
2018-09-30T00:07:35.624Z,18.00
2018-09-30T00:08:40.615Z,16.50
2018-09-30T00:09:43.310Z,17.00
2018-09-30T00:10:46.321Z,21.75
2018-09-30T00:11:49.815Z,18.00
2018-09-30T00:12:52.515Z,18.00
2018-09-30T00:13:55.228Z,18.50
2018-09-30T00:14:57.916Z,17.00
2018-09-30T00:16:00.635Z,15.25
2018-09-30T00:17:03.861Z,17.50
2018-09-30T00:18:06.583Z,21.00
2018-09-30T00:19:10.412Z,23.25
2018-09-30T00:20:13.150Z,17.50
2018-09-30T00:21:15.861Z,20.00
2018-09-30T00:22:18.556Z,18.00
2018-09-30T00:23:22.211Z,20.00
2018-09-30T00:24:31.669Z,14.75
2018-09-30T00:25:39.469Z,18.75
2018-09-30T00:27:46.518Z,18.50
2018-09-30T00:28:49.246Z,17.00
2018-09-30T00:29:53.002Z,17.00
2018-09-30T00:30:55.719Z,17.75
2018-09-30T00:31:59.246Z,18.75
2018-09-30T00:33:01.944Z,20.50
2018-09-30T00:34:09.565Z,22.00
2018-09-30T00:35:12.319Z,17.50
2018-09-30T00:36:16.621Z,17.25
2018-09-30T00:37:19.379Z,18.00
2018-09-30T00:38:22.074Z,13.50
2018-09-30T00:39:25.852Z,19.50
2018-09-30T00:40:28.678Z,17.50
2018-09-30T00:41:31.446Z,15.25
2018-09-30T00:42:34.582Z,15.75
2018-09-30T00:43:38.583Z,15.25
2018-09-30T00:44:42.742Z,15.75
2018-09-30T00:45:45.694Z,15.00
2018-09-30T00:46:49.342Z,15.00
2018-09-30T00:47:52.668Z,16.00
2018-09-30T00:48:56.438Z,16.75
2018-09-30T00:49:59.461Z,16.75
2018-09-30T00:51:02.925Z,16.75
2018-09-30T00:52:06.420Z,21.00
2018-09-30T00:53:11.549Z,18.75
2018-09-30T00:54:15.090Z,15.50
2018-09-30T00:55:18.593Z,16.00
2018-09-30T00:56:21.262Z,16.75
2018-09-30T00:57:23.980Z,14.00
2018-09-30T00:58:26.804Z,19.25
2018-09-30T00:59:29.540Z,16.75
2018-09-30T01:00:33.203Z,16.00
2018-09-30T01:01:36.436Z,17.00
2018-09-30T01:02:39.342Z,16.75
2018-09-30T01:03:42.109Z,11.50
2018-09-30T01:04:44.799Z,14.50
2018-09-30T01:05:47.668Z,17.25
2018-09-30T01:06:50.377Z,16.50
2018-09-30T01:07:53.366Z,18.25
2018-09-30T01:08:56.125Z,16.00
2018-09-30T01:09:58.814Z,15.50
2018-09-30T01:11:01.518Z,13.50
2018-09-30T01:12:04.216Z,13.00
2018-09-30T01:13:06.936Z,15.25
2018-09-30T01:14:09.935Z,13.50
2018-09-30T01:15:12.655Z,15.50
2018-09-30T01:16:15.658Z,14.50
2018-09-30T01:17:18.368Z,15.00
2018-09-30T01:18:21.071Z,15.50
2018-09-30T01:19:23.796Z,18.00
2018-09-30T01:20:26.785Z,16.00
2018-09-30T01:21:29.609Z,15.00
2018-09-30T01:22:32.355Z,16.25
2018-09-30T01:23:35.302Z,14.50
2018-09-30T01:24:38.029Z,12.50
2018-09-30T01:25:40.933Z,10.50
2018-09-30T01:26:44.422Z,16.25
2018-09-30T01:27:47.917Z,13.00
2018-09-30T01:28:50.602Z,15.00
2018-09-30T01:29:54.293Z,13.00
2018-09-30T01:30:56.982Z,10.50
2018-09-30T01:31:59.755Z,11.50
2018-09-30T01:33:02.820Z,13.00
2018-09-30T01:34:06.143Z,12.50
2018-09-30T01:35:09.435Z,15.50
2018-09-30T01:36:12.269Z,11.50
2018-09-30T01:37:14.981Z,11.50
2018-09-30T01:38:17.730Z,14.00
2018-09-30T01:39:20.728Z,11.50
2018-09-30T01:40:23.413Z,16.25
2018-09-30T01:41:26.146Z,11.00
2018-09-30T01:42:28.862Z,11.00
2018-09-30T01:43:31.556Z,11.50
2018-09-30T01:44:36.032Z,11.00
2018-09-30T01:45:39.071Z,9.50
2018-09-30T01:46:41.773Z,12.50
2018-09-30T01:47:44.492Z,10.00
2018-09-30T01:48:47.220Z,13.50
2018-09-30T01:49:50.027Z,11.00
2018-09-30T01:50:52.842Z,11.00
2018-09-30T01:51:55.902Z,11.00
2018-09-30T01:52:59.587Z,11.00
2018-09-30T01:54:02.354Z,11.00
2018-09-30T01:55:05.158Z,14.50
2018-09-30T01:56:07.939Z,13.00
2018-09-30T01:57:10.658Z,9.00
2018-09-30T01:58:13.841Z,11.50
2018-09-30T02:00:35.575Z,10.50
2018-09-30T02:01:38.374Z,9.00
2018-09-30T02:02:41.156Z,11.00
2018-09-30T02:03:45.559Z,12.00
2018-09-30T02:04:48.654Z,10.50
2018-09-30T02:05:51.436Z,11.00
2018-09-30T02:06:54.264Z,12.50
2018-09-30T02:07:57.089Z,12.50
2018-09-30T02:09:00.002Z,9.00
2018-09-30T02:10:04.572Z,12.50
2018-09-30T02:11:08.440Z,9.00
2018-09-30T02:12:11.155Z,10.50
2018-09-30T02:13:13.863Z,13.00
2018-09-30T02:14:16.681Z,11.00
2018-09-30T02:15:19.424Z,12.50
2018-09-30T02:16:22.964Z,12.00
2018-09-30T02:17:26.070Z,9.00
2018-09-30T02:18:28.904Z,15.00
2018-09-30T02:19:31.784Z,9.00
2018-09-30T02:20:34.492Z,14.00
2018-09-30T02:21:37.210Z,16.50
2018-09-30T02:22:39.948Z,10.50
2018-09-30T02:23:42.979Z,11.00
2018-09-30T02:24:45.707Z,11.50
2018-09-30T02:25:48.434Z,8.00
2018-09-30T02:26:51.199Z,11.00
2018-09-30T02:27:53.898Z,13.00
2018-09-30T02:28:56.607Z,11.00
2018-09-30T02:29:59.635Z,13.50
2018-09-30T02:31:02.381Z,9.00
2018-09-30T02:32:05.226Z,16.00
2018-09-30T02:33:07.964Z,11.00
2018-09-30T02:34:10.672Z,12.50
2018-09-30T02:35:13.387Z,11.00
2018-09-30T02:36:16.409Z,9.00
2018-09-30T02:37:19.629Z,11.00
2018-09-30T02:38:22.361Z,9.00
2018-09-30T02:39:25.103Z,13.50
2018-09-30T02:40:27.822Z,13.00
2018-09-30T02:41:30.531Z,11.00
2018-09-30T02:42:33.530Z,16.00
2018-09-30T02:43:36.255Z,12.50
2018-09-30T02:44:38.965Z,16.00
2018-09-30T02:45:41.699Z,18.25
2018-09-30T02:46:44.391Z,17.00
2018-09-30T02:47:47.726Z,14.00
2018-09-30T02:48:50.768Z,11.00
2018-09-30T02:49:53.506Z,14.50
2018-09-30T02:50:56.265Z,12.00
2018-09-30T02:51:58.992Z,19.50
2018-09-30T02:53:01.794Z,15.00
2018-09-30T02:54:04.527Z,23.50
2018-09-30T02:55:07.531Z,22.50
2018-09-30T02:56:10.270Z,23.50
2018-09-30T02:57:13.199Z,20.75
2018-09-30T02:58:15.907Z,17.00
2018-09-30T02:59:18.658Z,23.00
2018-09-30T03:00:21.399Z,18.50
2018-09-30T03:01:24.409Z,20.00
2018-09-30T03:02:27.110Z,20.00
2018-09-30T03:03:30.439Z,19.50
2018-09-30T03:04:33.188Z,26.25
2018-09-30T03:05:35.906Z,19.50
2018-09-30T03:06:43.523Z,18.00
2018-09-30T03:07:51.458Z,21.50
2018-09-30T03:08:59.089Z,17.00
2018-09-30T03:10:01.801Z,17.75
2018-09-30T03:11:04.792Z,17.75
2018-09-30T03:12:07.982Z,19.75
2018-09-30T03:13:10.703Z,15.00
2018-09-30T03:14:15.004Z,13.50
2018-09-30T03:15:17.763Z,9.75
2018-09-30T03:16:20.524Z,13.00
2018-09-30T03:17:23.265Z,14.75
2018-09-30T03:18:27.595Z,14.75
2018-09-30T03:19:31.578Z,11.50
2018-09-30T03:20:34.594Z,11.25
2018-09-30T03:21:38.115Z,13.00
2018-09-30T03:22:40.862Z,13.00
2018-09-30T03:23:43.607Z,14.75
2018-09-30T03:24:46.347Z,18.75
2018-09-30T03:25:49.049Z,19.50
2018-09-30T03:26:51.768Z,15.75
2018-09-30T03:27:54.752Z,19.00
2018-09-30T03:28:57.491Z,19.25
2018-09-30T03:30:00.208Z,19.75
2018-09-30T03:31:02.951Z,16.00
2018-09-30T03:32:05.686Z,16.75
2018-09-30T03:33:08.696Z,18.25
2018-09-30T03:34:12.528Z,21.25
2018-09-30T03:35:15.245Z,17.00
2018-09-30T03:36:19.683Z,19.00
2018-09-30T03:37:23.016Z,19.75
2018-09-30T03:38:25.719Z,14.00
2018-09-30T03:39:28.767Z,15.00
2018-09-30T03:40:31.471Z,14.00
2018-09-30T03:41:34.206Z,19.00
2018-09-30T03:42:36.991Z,11.25
2018-09-30T03:43:40.487Z,13.25
2018-09-30T03:44:43.187Z,13.00
2018-09-30T03:45:46.281Z,13.00
2018-09-30T03:46:49.006Z,13.00
2018-09-30T03:47:51.717Z,10.50
2018-09-30T03:48:54.437Z,9.00
2018-09-30T03:49:57.162Z,13.75
2018-09-30T03:50:59.882Z,11.50
2018-09-30T03:52:03.072Z,9.00
2018-09-30T03:53:05.796Z,12.25
2018-09-30T03:54:08.486Z,9.75
2018-09-30T03:55:11.231Z,7.00
2018-09-30T03:56:13.960Z,10.25
2018-09-30T03:57:16.666Z,9.75
2018-09-30T03:58:22.508Z,7.00
2018-09-30T03:59:25.272Z,11.00
2018-09-30T04:00:28.022Z,11.00
2018-09-30T04:01:30.784Z,9.75
2018-09-30T04:02:34.482Z,9.00
2018-09-30T04:03:37.215Z,10.50
2018-09-30T04:04:40.242Z,9.00
2018-09-30T04:05:42.958Z,7.00
2018-09-30T04:06:45.660Z,10.50
2018-09-30T04:07:48.362Z,11.00
2018-09-30T04:08:51.061Z,8.75
2018-09-30T04:09:54.560Z,6.50
2018-09-30T04:10:57.593Z,8.25
2018-09-30T04:12:00.295Z,13.00
2018-09-30T04:13:03.004Z,9.75
2018-09-30T04:14:05.725Z,7.50
2018-09-30T04:15:08.459Z,7.00
2018-09-30T04:16:11.165Z,7.00
2018-09-30T04:17:14.218Z,8.25
2018-09-30T04:18:16.962Z,9.00
2018-09-30T04:19:19.739Z,8.50
2018-09-30T04:20:22.468Z,11.00
2018-09-30T04:21:25.177Z,9.50
2018-09-30T04:22:27.893Z,7.00
2018-09-30T04:23:31.022Z,9.00
2018-09-30T04:24:33.728Z,9.75
2018-09-30T04:25:36.479Z,9.25
2018-09-30T04:26:40.198Z,7.00
2018-09-30T04:27:42.932Z,14.00
2018-09-30T04:28:45.642Z,10.25
2018-09-30T04:29:48.617Z,8.50
2018-09-30T04:30:51.341Z,10.00
2018-09-30T04:31:54.630Z,11.75
2018-09-30T04:32:57.327Z,10.50
2018-09-30T04:34:00.205Z,10.00
2018-09-30T04:35:02.927Z,8.50
2018-09-30T04:36:05.950Z,10.75
2018-09-30T04:37:09.084Z,9.00
2018-09-30T04:38:11.833Z,9.50
2018-09-30T04:39:14.565Z,9.25
2018-09-30T04:40:17.320Z,10.25
2018-09-30T04:41:20.058Z,7.75
2018-09-30T04:42:23.071Z,11.00
2018-09-30T04:43:25.804Z,12.25
2018-09-30T04:44:28.551Z,8.25
2018-09-30T04:45:31.280Z,9.75
2018-09-30T04:46:33.987Z,9.75
2018-09-30T04:47:36.728Z,7.25
2018-09-30T04:48:39.798Z,7.75
2018-09-30T04:49:42.517Z,11.50
2018-09-30T04:50:45.247Z,8.25
2018-09-30T04:51:48.008Z,7.75
2018-09-30T04:52:50.863Z,9.75
2018-09-30T04:53:53.569Z,11.75
2018-09-30T04:54:56.599Z,7.50
2018-09-30T04:55:59.308Z,7.00
2018-09-30T04:57:02.054Z,7.75
2018-09-30T04:58:04.808Z,7.75
2018-09-30T04:59:07.531Z,9.00
2018-09-30T05:00:10.237Z,8.00
2018-09-30T05:01:13.489Z,7.50
2018-09-30T05:02:16.211Z,5.75
2018-09-30T05:03:18.936Z,7.50
2018-09-30T05:04:21.637Z,8.50
2018-09-30T05:05:24.374Z,10.00
2018-09-30T05:06:27.100Z,9.75
2018-09-30T05:07:30.459Z,6.25
2018-09-30T05:08:33.142Z,9.25
2018-09-30T05:09:35.866Z,8.25
2018-09-30T05:10:38.606Z,11.25
2018-09-30T05:11:41.309Z,9.75
2018-09-30T05:12:44.028Z,9.75
2018-09-30T05:13:47.102Z,10.75
2018-09-30T05:14:49.958Z,11.25
2018-09-30T05:15:53.136Z,9.50
2018-09-30T05:16:56.014Z,10.25
2018-09-30T05:17:59.099Z,14.75
2018-09-30T05:19:01.813Z,8.00
2018-09-30T05:20:05.128Z,8.25
2018-09-30T05:21:07.849Z,14.50
2018-09-30T05:22:10.786Z,8.50
2018-09-30T05:23:13.483Z,8.00
2018-09-30T05:24:16.779Z,7.50
2018-09-30T05:25:19.480Z,8.00
2018-09-30T05:26:22.496Z,8.50
2018-09-30T05:27:25.207Z,8.00
2018-09-30T05:28:27.920Z,9.50
2018-09-30T05:29:30.620Z,10.00
2018-09-30T05:30:33.339Z,8.00
2018-09-30T05:44:54.598Z,12.50
2018-09-30T05:45:57.327Z,11.50
2018-09-30T05:47:00.048Z,10.50
2018-09-30T05:48:02.759Z,13.00
2018-09-30T05:49:05.488Z,12.00
2018-09-30T05:50:08.806Z,14.50
2018-09-30T05:51:12.128Z,13.50
2018-09-30T05:52:14.881Z,8.25
2018-09-30T05:53:17.582Z,7.75
2018-09-30T05:54:20.318Z,18.25
2018-09-30T05:55:23.040Z,11.00
2018-09-30T05:56:27.275Z,10.75
2018-09-30T05:57:30.033Z,11.50
2018-09-30T05:58:32.751Z,13.50
2018-09-30T05:59:35.440Z,9.00
2018-09-30T06:00:38.179Z,11.00
2018-09-30T06:01:41.260Z,14.50
2018-09-30T06:02:44.310Z,13.50
2018-09-30T06:03:47.909Z,11.00
2018-09-30T06:04:50.693Z,20.50
2018-09-30T06:05:54.991Z,20.00
2018-09-30T06:06:57.745Z,21.75
2018-09-30T06:08:00.689Z,22.00
2018-09-30T06:09:05.744Z,21.75
2018-09-30T06:10:08.460Z,17.50
2018-09-30T06:11:11.181Z,16.25
2018-09-30T06:12:14.302Z,19.00
2018-09-30T06:13:17.020Z,19.50
2018-09-30T06:14:19.900Z,16.50
2018-09-30T06:15:23.520Z,13.50
2018-09-30T06:16:26.270Z,17.00
2018-09-30T06:17:30.009Z,19.75
2018-09-30T06:18:32.743Z,16.25
2018-09-30T06:19:35.529Z,16.25
2018-09-30T06:20:38.805Z,17.00
2018-09-30T06:21:42.589Z,13.75
2018-09-30T06:22:45.331Z,18.00
2018-09-30T06:23:48.097Z,17.00
2018-09-30T06:24:50.853Z,18.00
2018-09-30T06:25:53.647Z,20.50
2018-09-30T06:26:56.399Z,16.00
2018-09-30T06:27:59.542Z,18.00
2018-09-30T06:29:02.412Z,16.75
2018-09-30T06:30:05.203Z,18.00
2018-09-30T06:31:07.951Z,17.25
2018-09-30T06:32:10.785Z,16.25
2018-09-30T06:33:13.565Z,25.50
2018-09-30T06:34:16.633Z,27.50
2018-09-30T06:35:19.433Z,28.25
2018-09-30T06:36:22.207Z,26.75
2018-09-30T06:37:24.932Z,22.25
2018-09-30T06:38:28.427Z,22.25
2018-09-30T06:39:31.195Z,18.50
2018-09-30T06:40:34.232Z,20.00
2018-09-30T06:41:37.023Z,16.75
2018-09-30T06:42:39.778Z,16.50
2018-09-30T06:43:42.530Z,18.75
2018-09-30T06:44:45.359Z,34.50
2018-09-30T06:45:48.093Z,42.25
2018-09-30T06:46:51.344Z,35.25
2018-09-30T06:47:54.303Z,33.50
2018-09-30T06:48:57.104Z,28.25
2018-09-30T06:49:59.830Z,23.50
2018-09-30T06:51:02.885Z,18.50
2018-09-30T06:52:05.737Z,23.50
2018-09-30T06:53:08.595Z,20.00
2018-09-30T06:54:12.366Z,18.75
2018-09-30T06:55:15.324Z,18.50
2018-09-30T06:56:18.114Z,15.25
2018-09-30T06:57:20.903Z,19.50
2018-09-30T06:58:24.005Z,21.25
2018-09-30T06:59:27.030Z,18.75
2018-09-30T07:00:30.093Z,20.25
2018-09-30T07:01:33.224Z,17.00
2018-09-30T07:02:36.035Z,17.75
2018-09-30T07:03:38.921Z,19.25
2018-09-30T07:04:43.355Z,17.00
2018-09-30T07:05:46.653Z,19.50
2018-09-30T07:06:50.409Z,17.00
2018-09-30T07:07:53.255Z,21.75
2018-09-30T07:08:59.343Z,20.00
2018-09-30T07:10:02.936Z,22.25
2018-09-30T07:11:06.081Z,19.75
2018-09-30T07:12:09.533Z,18.00
2018-09-30T07:13:12.452Z,20.50
2018-09-30T07:14:15.270Z,21.50
2018-09-30T07:15:18.030Z,20.00
2018-09-30T07:16:21.912Z,18.75
2018-09-30T07:17:25.630Z,20.00
2018-09-30T07:18:29.433Z,17.50
2018-09-30T07:19:33.413Z,23.00
2018-09-30T07:20:36.671Z,22.25
2018-09-30T07:21:40.373Z,18.50
2018-09-30T07:22:43.637Z,23.00
2018-09-30T07:23:46.907Z,18.75
2018-09-30T07:24:50.456Z,17.25
2018-09-30T07:25:53.198Z,18.75
2018-09-30T07:26:56.785Z,19.25
2018-09-30T07:28:00.589Z,15.00
2018-09-30T07:29:03.486Z,18.25
2018-09-30T07:30:06.717Z,19.00
2018-09-30T07:31:09.590Z,17.75
2018-09-30T07:32:13.441Z,19.00
2018-09-30T07:33:16.179Z,12.75
2018-09-30T07:34:19.154Z,15.50
2018-09-30T07:35:23.574Z,17.25
2018-09-30T07:36:26.717Z,18.25
2018-09-30T07:37:30.235Z,15.25
2018-09-30T07:38:33.879Z,14.50
2018-09-30T07:39:38.526Z,19.50
2018-09-30T07:40:43.106Z,15.75
2018-09-30T07:41:45.929Z,15.25
2018-09-30T07:42:49.793Z,14.75
2018-09-30T07:43:52.668Z,13.75
2018-09-30T07:44:57.522Z,14.75
2018-09-30T07:46:00.704Z,13.00
2018-09-30T07:47:03.629Z,16.00
2018-09-30T07:48:06.437Z,17.25
2018-09-30T07:49:10.415Z,12.50
2018-09-30T07:50:15.592Z,13.00
2018-09-30T07:51:19.010Z,13.75
2018-09-30T07:52:21.788Z,13.00
2018-09-30T07:53:24.665Z,15.00
2018-09-30T07:54:27.500Z,14.75
2018-09-30T07:55:30.803Z,13.75
2018-09-30T07:56:33.588Z,16.50
2018-09-30T07:57:37.343Z,14.25
2018-09-30T07:58:40.100Z,17.50
2018-09-30T07:59:42.946Z,19.00
2018-09-30T08:00:46.406Z,15.75
2018-09-30T08:01:49.749Z,14.25
2018-09-30T08:02:52.534Z,15.00
2018-09-30T08:03:55.305Z,15.00
2018-09-30T08:04:58.030Z,15.00
2018-09-30T08:06:01.061Z,15.00
2018-09-30T08:07:03.844Z,12.75
2018-09-30T08:08:07.650Z,14.75
2018-09-30T08:09:10.902Z,14.00
2018-09-30T08:10:13.815Z,15.25
2018-09-30T08:11:16.573Z,17.00
2018-09-30T08:12:19.450Z,18.00
2018-09-30T08:13:23.843Z,17.75
2018-09-30T08:14:27.768Z,17.25
2018-09-30T08:15:30.518Z,16.75
2018-09-30T08:16:35.724Z,15.75
2018-09-30T08:17:38.456Z,14.50
2018-09-30T08:18:41.755Z,19.50
2018-09-30T08:19:45.758Z,13.00
2018-09-30T08:20:48.831Z,13.25
2018-09-30T08:21:51.988Z,13.50
2018-09-30T08:22:54.734Z,13.50
2018-09-30T08:23:57.958Z,14.50
2018-09-30T08:25:00.812Z,17.00
2018-09-30T08:26:03.681Z,15.00
2018-09-30T08:27:06.749Z,12.00
2018-09-30T08:28:09.471Z,13.00
2018-09-30T08:29:12.447Z,16.50
2018-09-30T08:30:15.447Z,15.00
2018-09-30T08:31:18.268Z,15.00
2018-09-30T08:32:21.776Z,14.00
2018-09-30T08:33:25.616Z,14.75
2018-09-30T08:34:28.390Z,13.50
2018-09-30T08:35:31.628Z,11.00
2018-09-30T08:36:34.473Z,11.50
2018-09-30T08:37:42.242Z,12.75
2018-09-30T08:38:45.436Z,11.00
2018-09-30T08:39:50.749Z,14.00
2018-09-30T08:40:58.602Z,12.00
2018-09-30T08:42:02.128Z,13.00
2018-09-30T08:43:05.098Z,12.25
2018-09-30T08:44:08.025Z,11.75
2018-09-30T08:45:10.958Z,12.00
2018-09-30T08:46:14.117Z,12.00
2018-09-30T08:47:17.026Z,10.75
2018-09-30T08:48:20.731Z,10.50
2018-09-30T08:49:24.087Z,12.75
2018-09-30T08:50:27.180Z,12.00
2018-09-30T08:51:31.882Z,14.00
2018-09-30T08:52:35.996Z,16.00
2018-09-30T08:53:38.727Z,14.50
2018-09-30T08:54:42.308Z,15.25
2018-09-30T08:55:45.265Z,13.00
2018-09-30T08:56:48.409Z,12.25
2018-09-30T08:57:51.992Z,14.25
2018-09-30T08:58:56.633Z,13.00
2018-09-30T09:00:00.848Z,11.50
2018-09-30T09:02:19.054Z,12.75
2018-09-30T09:03:22.543Z,11.50
2018-09-30T09:04:25.502Z,12.50
2018-09-30T09:05:29.261Z,14.00
2018-09-30T09:06:32.505Z,11.75
2018-09-30T09:07:35.988Z,13.75
2018-09-30T09:08:39.737Z,12.50
2018-09-30T09:09:43.486Z,9.75
2018-09-30T09:10:46.695Z,12.75
2018-09-30T09:11:50.758Z,10.75
2018-09-30T09:12:54.872Z,9.50
2018-09-30T09:13:59.005Z,9.75
2018-09-30T09:15:02.274Z,8.75
2018-09-30T09:16:06.782Z,9.25
2018-09-30T09:17:10.903Z,7.00
2018-09-30T09:18:14.844Z,8.00
2018-09-30T09:19:17.696Z,7.00
2018-09-30T09:20:21.526Z,8.00
2018-09-30T09:21:24.756Z,7.75
2018-09-30T09:22:29.073Z,7.75
2018-09-30T09:23:32.060Z,8.00
2018-09-30T09:24:35.307Z,7.00
2018-09-30T09:25:39.840Z,6.00
2018-09-30T09:26:43.234Z,6.00
2018-09-30T09:27:46.531Z,6.00
2018-09-30T09:28:50.297Z,6.00
2018-09-30T09:29:54.558Z,6.00
2018-09-30T09:30:58.281Z,6.00
2018-09-30T09:32:02.080Z,5.00
2018-09-30T09:33:06.175Z,6.25
2018-09-30T09:34:09.325Z,6.25
2018-09-30T09:35:12.351Z,6.00
2018-09-30T09:36:15.710Z,7.00
2018-09-30T09:37:19.776Z,7.25
2018-09-30T09:38:23.878Z,6.75
2018-09-30T09:39:26.834Z,6.00
2018-09-30T09:40:29.844Z,8.50
2018-09-30T09:41:32.918Z,10.50
2018-09-30T09:42:35.944Z,6.75
2018-09-30T09:43:39.278Z,6.25
2018-09-30T09:44:42.567Z,6.00
2018-09-30T09:45:45.715Z,7.25
2018-09-30T09:46:48.677Z,8.25
2018-09-30T09:47:52.165Z,8.75
2018-09-30T09:48:55.215Z,6.25
2018-09-30T09:49:58.728Z,6.25
2018-09-30T09:51:01.650Z,7.25
2018-09-30T09:52:04.538Z,7.25
2018-09-30T09:53:07.570Z,7.25
2018-09-30T09:54:10.299Z,5.50
2018-09-30T09:55:13.146Z,6.50
2018-09-30T09:56:19.306Z,6.00
2018-09-30T09:57:22.671Z,5.50
2018-09-30T09:58:27.886Z,7.50
2018-09-30T09:59:30.872Z,10.50
2018-09-30T10:00:38.826Z,6.00
2018-09-30T10:01:42.510Z,5.50
2018-09-30T10:02:45.784Z,6.00
2018-09-30T10:03:48.771Z,7.50
2018-09-30T10:04:55.195Z,5.50
2018-09-30T10:05:58.682Z,6.50
2018-09-30T10:07:01.790Z,3.50
2018-09-30T10:08:06.000Z,6.00
2018-09-30T10:09:08.887Z,5.50
2018-09-30T10:10:11.750Z,5.50
2018-09-30T10:11:14.791Z,6.25
2018-09-30T10:12:18.160Z,6.00
2018-09-30T10:13:21.130Z,6.75
2018-09-30T10:14:25.568Z,6.50
2018-09-30T10:15:29.866Z,9.00
2018-09-30T10:16:36.959Z,7.00
2018-09-30T10:17:40.340Z,7.75
2018-09-30T10:18:44.008Z,5.00
2018-09-30T10:19:48.244Z,8.50
2018-09-30T10:20:56.042Z,6.00
2018-09-30T10:22:00.019Z,5.50
2018-09-30T10:23:04.499Z,9.25
2018-09-30T10:24:11.603Z,7.00
2018-09-30T10:25:17.798Z,5.50
2018-09-30T10:26:21.317Z,7.00
2018-09-30T10:27:24.402Z,5.00
2018-09-30T10:28:29.504Z,5.25
2018-09-30T10:29:32.298Z,6.00
2018-09-30T10:30:35.964Z,7.00
2018-09-30T10:44:26.858Z,5.75
2018-09-30T10:45:30.358Z,6.00
2018-09-30T10:46:35.325Z,7.00
2018-09-30T10:47:38.165Z,5.50
2018-09-30T10:48:41.828Z,9.00
2018-09-30T10:49:45.894Z,5.75
2018-09-30T10:50:48.753Z,5.00
2018-09-30T10:51:51.628Z,6.50
2018-09-30T10:52:55.935Z,5.50
2018-09-30T10:53:59.704Z,5.25
2018-09-30T10:55:02.607Z,5.50
2018-09-30T10:56:06.674Z,6.00
2018-09-30T10:57:11.207Z,5.00
2018-09-30T10:58:14.029Z,5.00
2018-09-30T10:59:16.946Z,5.75
2018-09-30T11:00:19.908Z,4.25
2018-09-30T11:01:23.793Z,5.00
2018-09-30T11:02:28.958Z,6.00
2018-09-30T11:03:31.984Z,4.75
2018-09-30T11:04:35.925Z,4.00
2018-09-30T11:05:39.670Z,6.00
2018-09-30T11:06:42.464Z,5.00
2018-09-30T11:07:45.215Z,5.50
2018-09-30T11:08:48.252Z,6.00
2018-09-30T11:09:51.046Z,6.00
2018-09-30T11:10:55.891Z,4.25
2018-09-30T11:11:58.697Z,5.00
2018-09-30T11:13:03.891Z,5.00
2018-09-30T11:14:06.706Z,4.50
2018-09-30T11:15:10.340Z,5.00
2018-09-30T11:16:13.311Z,6.00
2018-09-30T11:17:16.590Z,10.25
2018-09-30T11:18:19.712Z,5.50
2018-09-30T11:19:22.583Z,7.00
2018-09-30T11:20:25.841Z,5.50
2018-09-30T11:21:30.675Z,4.50
2018-09-30T11:22:33.940Z,4.00
2018-09-30T11:23:37.631Z,6.00
2018-09-30T11:24:40.991Z,5.00
2018-09-30T11:25:44.693Z,6.00
2018-09-30T11:26:51.049Z,5.00
2018-09-30T11:27:56.850Z,4.25
2018-09-30T11:29:01.452Z,5.50
2018-09-30T11:30:05.842Z,4.00
2018-09-30T11:31:08.905Z,5.00
2018-09-30T11:32:11.896Z,4.00
2018-09-30T11:33:14.911Z,6.00
2018-09-30T11:34:18.964Z,6.75
2018-09-30T11:35:21.701Z,4.00
2018-09-30T11:36:25.011Z,4.25
2018-09-30T11:37:29.556Z,4.00
2018-09-30T11:38:32.758Z,5.50
2018-09-30T11:39:36.789Z,4.25
2018-09-30T11:40:41.337Z,4.00
2018-09-30T11:41:44.645Z,5.50
2018-09-30T11:42:48.304Z,6.00
2018-09-30T11:43:53.516Z,3.75
2018-09-30T11:44:57.514Z,4.00
2018-09-30T11:46:00.271Z,4.00
2018-09-30T11:47:03.412Z,5.25
2018-09-30T11:48:08.947Z,5.00
2018-09-30T11:49:11.793Z,5.25
2018-09-30T11:50:15.575Z,5.50
2018-09-30T11:51:20.004Z,5.75
2018-09-30T11:52:23.136Z,9.25
2018-09-30T11:53:27.253Z,6.75
2018-09-30T11:54:30.945Z,11.75
2018-09-30T11:55:33.770Z,9.50
2018-09-30T11:56:37.299Z,6.00
2018-09-30T11:57:41.643Z,5.75
2018-09-30T11:58:45.710Z,7.75
2018-09-30T11:59:48.800Z,5.00
2018-09-30T12:00:52.555Z,5.00
2018-09-30T12:01:56.456Z,5.00
2018-09-30T12:03:00.069Z,4.75
2018-09-30T12:04:04.087Z,4.50
2018-09-30T12:05:10.806Z,8.75
2018-09-30T12:06:14.355Z,6.00
2018-09-30T12:07:17.530Z,7.50
2018-09-30T12:08:20.504Z,8.25
2018-09-30T12:09:24.935Z,4.00
2018-09-30T12:10:28.216Z,4.25
2018-09-30T12:12:41.275Z,5.50
2018-09-30T12:13:44.259Z,4.00
2018-09-30T12:14:47.305Z,5.00
2018-09-30T12:15:50.294Z,4.00
2018-09-30T12:16:53.209Z,6.00
2018-09-30T12:17:56.860Z,6.00
2018-09-30T12:19:02.548Z,5.00
2018-09-30T12:20:06.330Z,4.50
2018-09-30T12:21:10.258Z,4.00
2018-09-30T12:22:14.005Z,4.75
2018-09-30T12:23:19.148Z,5.00
2018-09-30T12:24:22.554Z,5.00
2018-09-30T12:25:26.053Z,6.00
2018-09-30T12:26:29.438Z,7.00
2018-09-30T12:27:32.643Z,4.75
2018-09-30T12:28:36.334Z,4.75
2018-09-30T12:29:39.219Z,5.50
2018-09-30T12:30:44.134Z,4.50
2018-09-30T12:31:48.264Z,5.75
2018-09-30T12:32:52.642Z,4.00
2018-09-30T12:33:55.386Z,4.00
2018-09-30T12:34:58.404Z,3.25
2018-09-30T12:36:01.140Z,7.75
2018-09-30T12:37:04.357Z,5.50
2018-09-30T12:38:07.241Z,6.00
2018-09-30T12:39:11.609Z,6.50
2018-09-30T12:40:14.437Z,7.50
2018-09-30T12:41:18.274Z,6.75
2018-09-30T12:42:21.037Z,3.00
2018-09-30T12:43:24.346Z,6.50
2018-09-30T12:44:30.378Z,4.00
2018-09-30T12:45:33.183Z,4.00
2018-09-30T12:46:37.365Z,4.00
2018-09-30T12:47:40.222Z,4.00
2018-09-30T12:48:43.791Z,6.00
2018-09-30T12:49:48.118Z,5.50
2018-09-30T12:50:51.689Z,4.50
2018-09-30T12:51:56.974Z,4.00
2018-09-30T12:53:02.652Z,3.25
2018-09-30T12:54:06.313Z,4.00
2018-09-30T12:55:09.100Z,4.00
2018-09-30T12:56:12.218Z,6.50
2018-09-30T12:57:14.935Z,6.25
2018-09-30T12:58:18.279Z,6.50
2018-09-30T12:59:21.082Z,3.75
2018-09-30T13:00:23.886Z,5.50
2018-09-30T13:01:26.623Z,6.25
2018-09-30T13:02:29.672Z,4.00
2018-09-30T13:03:32.426Z,4.00
2018-09-30T13:04:35.216Z,7.25
2018-09-30T13:05:40.999Z,4.00
2018-09-30T13:06:44.367Z,5.00
2018-09-30T13:07:47.146Z,5.75
2018-09-30T13:08:50.161Z,5.00
2018-09-30T13:09:52.925Z,5.00
2018-09-30T13:10:56.414Z,4.00
2018-09-30T13:11:59.193Z,6.00
2018-09-30T13:13:03.459Z,4.00
2018-09-30T13:14:06.226Z,3.75
2018-09-30T13:15:13.324Z,4.00
2018-09-30T13:16:16.144Z,6.00
2018-09-30T13:17:18.904Z,6.25
2018-09-30T13:18:22.719Z,7.00
2018-09-30T13:19:25.470Z,6.00
2018-09-30T13:20:28.311Z,4.00
2018-09-30T13:21:32.502Z,5.00
2018-09-30T13:22:35.246Z,5.50
2018-09-30T13:23:39.879Z,6.00
2018-09-30T13:24:42.601Z,4.00
2018-09-30T13:25:46.282Z,3.75
2018-09-30T13:26:49.542Z,3.75
2018-09-30T13:27:52.764Z,5.75
2018-09-30T13:28:55.505Z,5.50
2018-09-30T13:29:58.268Z,4.50
2018-09-30T13:31:01.200Z,6.00
2018-09-30T13:32:04.181Z,4.00
2018-09-30T13:33:07.512Z,3.00
2018-09-30T13:34:10.725Z,4.00
2018-09-30T13:35:13.515Z,3.75
2018-09-30T13:36:16.420Z,4.50
2018-09-30T13:37:19.285Z,4.00
2018-09-30T13:38:22.276Z,4.25
2018-09-30T13:39:25.023Z,3.25
2018-09-30T13:40:31.991Z,3.75
2018-09-30T13:41:35.435Z,7.00
2018-09-30T13:42:38.315Z,3.75
2018-09-30T13:43:41.240Z,5.25
2018-09-30T13:44:44.267Z,4.00
2018-09-30T13:45:47.203Z,3.00
2018-09-30T13:46:51.196Z,7.75
2018-09-30T13:47:54.055Z,4.75
2018-09-30T13:48:56.921Z,3.75
2018-09-30T13:50:00.534Z,3.75
2018-09-30T13:51:03.527Z,6.00
2018-09-30T13:52:06.444Z,4.00
2018-09-30T13:53:09.373Z,5.75
2018-09-30T13:54:12.482Z,3.50
2018-09-30T13:55:15.245Z,4.00
2018-09-30T13:56:18.120Z,5.75
2018-09-30T13:57:21.077Z,7.50
2018-09-30T13:58:24.233Z,3.75
2018-09-30T13:59:28.660Z,6.00
2018-09-30T14:00:32.599Z,3.25
2018-09-30T14:01:35.604Z,5.50
2018-09-30T14:02:39.932Z,5.50
2018-09-30T14:03:44.650Z,4.50
2018-09-30T14:04:48.630Z,4.00
2018-09-30T14:05:52.954Z,3.00
2018-09-30T14:06:56.090Z,4.00
2018-09-30T14:07:59.219Z,3.75
2018-09-30T14:09:02.633Z,3.00
2018-09-30T14:10:09.264Z,3.25
2018-09-30T14:11:13.336Z,6.25
2018-09-30T14:12:17.575Z,5.00
2018-09-30T14:13:20.597Z,3.50
2018-09-30T14:14:24.547Z,5.50
2018-09-30T14:15:30.437Z,3.00
2018-09-30T14:16:33.963Z,4.00
2018-09-30T14:17:36.708Z,4.50
2018-09-30T14:18:40.166Z,4.50